Time;durP1;ratioP1;P1;durP2;ratioP2;P2;SDS_P1;SDS_P2;PMS_P1;PMS_P2;Temp;Humidity;BMP_temperature;BMP_pressure;BME280_temperature;BME280_humidity;BME280_pressure;Samples;Min_cycle;Max_cycle;Signal;HPM_P1;HPM_P2
2021/03/22 00:01:43;;;;;;;4.47;3.90;;;-2.30;99.90;-3.70;96214.00;;;;5069751;28;20426;-75
2021/03/22 00:04:31;;;;;;;4.83;3.10;;;-2.30;99.90;-3.70;96202.00;;;;5083631;28;20437;-74
2021/03/22 00:07:19;;;;;;;2.80;2.60;;;-2.30;99.90;-3.80;96221.00;;;;5064970;28;20469;-75
2021/03/22 00:10:08;;;;;;;2.30;2.10;;;-2.30;99.90;-3.70;96214.00;;;;5064582;28;20442;-74
2021/03/22 00:12:56;;;;;;;3.73;2.80;;;-2.30;99.90;-3.70;96208.00;;;;5065030;28;20430;-74
2021/03/22 00:15:51;;;;;;;2.60;2.33;;;-2.20;99.90;-3.60;96234.00;;;;5064870;28;20976;-75
2021/03/22 00:18:40;;;;;;;1.93;1.83;;;-2.20;99.90;-3.60;96231.00;;;;5066502;28;20476;-75
2021/03/22 00:21:27;;;;;;;2.00;1.70;;;-2.20;99.90;-3.50;96244.00;;;;5079385;28;20433;-74
2021/03/22 00:24:15;;;;;;;3.03;2.17;;;-2.20;99.90;-3.60;96242.00;;;;5083583;28;21088;-75
2021/03/22 00:27:04;;;;;;;2.27;1.80;;;-2.10;99.90;-3.50;96237.00;;;;5064632;28;21230;-75
2021/03/22 00:29:52;;;;;;;1.90;1.80;;;-2.10;99.90;-3.40;96232.00;;;;5070629;28;20446;-73
2021/03/22 00:32:41;;;;;;;1.80;1.63;;;-2.10;99.90;-3.30;96220.00;;;;5067558;28;20442;-73
2021/03/22 00:35:30;;;;;;;3.27;2.20;;;-2.00;99.90;-3.30;96218.00;;;;5064846;28;20797;-75
2021/03/22 00:38:19;;;;;;;2.27;2.07;;;-2.00;99.90;-3.30;96215.00;;;;5074512;28;20446;-75
2021/03/22 00:41:07;;;;;;;2.17;1.97;;;-1.90;99.90;-3.20;96219.00;;;;5084896;28;20467;-73
2021/03/22 00:43:55;;;;;;;1.40;1.30;;;-1.90;99.90;-3.20;96206.00;;;;5082600;28;20475;-75
2021/03/22 00:46:43;;;;;;;2.50;1.50;;;-1.80;99.90;-3.20;96199.00;;;;5066842;28;20802;-75
2021/03/22 00:49:32;;;;;;;1.77;1.10;;;-1.80;99.90;-3.20;96200.00;;;;5083956;28;20430;-75
2021/03/22 00:52:19;;;;;;;1.80;1.70;;;-1.80;99.90;-3.10;96200.00;;;;5072827;28;20426;-74
2021/03/22 00:55:09;;;;;;;2.30;1.67;;;-1.80;99.90;-3.00;96205.00;;;;5084168;28;20433;-75
2021/03/22 00:57:57;;;;;;;1.50;1.40;;;-1.70;99.90;-3.00;96199.00;;;;5085750;28;20460;-74
2021/03/22 01:00:48;;;;;;;1.50;1.40;;;-1.60;99.90;-3.00;96194.00;;;;5083801;28;20448;-75
2021/03/22 01:03:37;;;;;;;1.30;1.20;;;-1.60;99.90;-3.10;96196.00;;;;5075655;28;20434;-75
2021/03/22 01:06:26;;;;;;;1.40;1.30;;;-1.60;99.90;-3.10;96182.00;;;;5068206;28;20433;-74
2021/03/22 01:09:14;;;;;;;1.17;1.17;;;-1.50;99.90;-3.30;96175.00;;;;5082706;28;20422;-75
2021/03/22 01:12:02;;;;;;;2.63;1.60;;;-1.70;99.90;-3.20;96177.00;;;;5068034;28;20434;-75
2021/03/22 01:14:50;;;;;;;1.30;1.10;;;-1.70;99.90;-3.00;96189.00;;;;5068401;28;20438;-74
2021/03/22 01:17:38;;;;;;;1.90;1.70;;;-1.70;99.90;-2.90;96162.00;;;;5070671;28;20466;-74
2021/03/22 01:20:30;;;;;;;2.07;1.87;;;-1.60;99.90;-2.90;96167.00;;;;5075960;28;20864;-74
2021/03/22 01:23:20;;;;;;;0.70;0.67;;;-1.50;99.90;-3.30;96168.00;;;;5067951;28;21126;-75
2021/03/22 01:26:09;;;;;;;1.40;0.93;;;-1.60;99.90;-3.20;96168.00;;;;5067835;28;20965;-72
2021/03/22 01:28:57;;;;;;;1.80;1.30;;;-1.70;99.90;-3.10;96172.00;;;;5068827;28;20446;-75
2021/03/22 01:31:46;;;;;;;1.10;1.03;;;-1.70;99.90;-3.00;96162.00;;;;5087462;28;20452;-75
2021/03/22 01:34:34;;;;;;;1.17;0.93;;;-2.80;99.90;-2.90;96153.00;;;;5087831;28;20430;-75
2021/03/22 01:37:22;;;;;;;1.20;1.10;;;-1.60;99.90;-3.00;96150.00;;;;5070914;28;20450;-75
2021/03/22 01:40:28;;;;;;;1.23;1.10;;;-1.50;99.90;-2.90;96148.00;;;;5081344;28;21039;-75
2021/03/22 01:43:40;;;;;;;0.90;0.90;;;-1.50;99.90;-2.90;96142.00;;;;5085845;28;20440;-74
2021/03/22 01:46:28;;;;;;;0.93;0.93;;;-1.50;99.90;-3.50;96133.00;;;;5073327;28;20442;-74
2021/03/22 01:49:17;;;;;;;1.57;1.23;;;-1.70;99.90;-3.40;96136.00;;;;5086734;28;20514;-75
2021/03/22 01:52:06;;;;;;;1.70;1.30;;;-1.80;99.90;-3.50;96125.00;;;;5073850;28;20810;-74
2021/03/22 01:54:55;;;;;;;1.00;0.90;;;-1.90;99.90;-3.60;96114.00;;;;5084014;28;20434;-74
2021/03/22 01:57:46;;;;;;;2.50;1.40;;;-2.00;99.90;-3.50;96109.00;;;;5069198;28;20454;-76
2021/03/22 02:00:36;;;;;;;1.37;1.10;;;-2.10;99.90;-3.40;96115.00;;;;5076239;28;20847;-73
2021/03/22 02:03:24;;;;;;;1.47;1.33;;;-2.00;99.90;-3.40;96114.00;;;;5081549;28;20485;-76
2021/03/22 02:06:12;;;;;;;1.60;0.87;;;-1.90;99.90;-3.30;96127.00;;;;5068897;28;21015;-73
2021/03/22 02:09:02;;;;;;;1.30;1.20;;;-2.00;99.90;-3.30;96102.00;;;;5087674;28;20449;-73
2021/03/22 02:11:50;;;;;;;1.53;1.00;;;-1.90;99.90;-3.30;96117.00;;;;5087276;28;20430;-73
2021/03/22 02:14:39;;;;;;;1.20;1.20;;;-1.90;99.90;-3.30;96106.00;;;;5087435;28;20429;-75
2021/03/22 02:17:38;;;;;;;1.23;1.13;;;-1.90;99.90;-3.10;96108.00;;;;5086017;28;20603;-75
2021/03/22 02:21:24;;;;;;;1.40;1.30;;;-1.80;99.90;-3.10;96111.00;;;;5084322;28;20864;-75
2021/03/22 02:24:46;;;;;;;1.33;1.07;;;-1.80;99.90;-3.20;96105.00;;;;5056581;28;20960;-75
2021/03/22 02:28:25;;;;;;;1.53;1.33;;;-1.70;99.90;-3.30;96106.00;;;;5085769;28;20838;-75
2021/03/22 02:32:03;;;;;;;1.27;1.17;;;-1.80;99.90;-3.30;96115.00;;;;5078606;28;20439;-74
2021/03/22 02:34:55;;;;;;;1.30;0.87;;;-1.80;99.90;-3.20;96107.00;;;;5068561;28;20429;-74
2021/03/22 02:37:52;;;;;;;1.20;1.10;;;-1.80;99.90;-3.20;96104.00;;;;5067362;28;20829;-75
2021/03/22 02:40:46;;;;;;;1.60;1.50;;;-1.80;99.90;-3.20;96114.00;;;;5069683;28;20470;-75
2021/03/22 02:43:37;;;;;;;1.40;1.17;;;-1.80;99.90;-3.40;96109.00;;;;5086789;28;20472;-74
2021/03/22 02:46:25;;;;;;;0.90;0.90;;;-1.80;99.90;-3.50;96109.00;;;;5085638;28;20442;-75
2021/03/22 02:49:16;;;;;;;1.00;0.90;;;-0.80;99.90;-3.50;96104.00;;;;5083592;28;20424;-76
2021/03/22 02:52:23;;;;;;;1.00;1.00;;;-1.90;99.90;-3.40;96098.00;;;;5066881;28;21198;-73
2021/03/22 02:55:21;;;;;;;1.20;1.07;;;-1.90;99.90;-3.20;96116.00;;;;5066005;28;20437;-75
2021/03/22 02:58:15;;;;;;;2.10;1.53;;;-1.90;99.90;-3.10;96109.00;;;;5071043;28;20465;-74
2021/03/22 03:01:08;;;;;;;0.90;0.90;;;-1.80;99.90;-2.90;96117.00;;;;5071126;28;20430;-73
2021/03/22 03:03:59;;;;;;;1.03;0.90;;;-1.70;99.90;-2.70;96119.00;;;;5078720;28;20475;-73
2021/03/22 03:06:52;;;;;;;1.33;1.00;;;-1.60;99.90;-2.90;96117.00;;;;5086833;28;20426;-74
2021/03/22 03:09:41;;;;;;;1.17;1.07;;;-1.50;99.90;-3.00;96120.00;;;;5085492;28;20425;-75
2021/03/22 03:12:29;;;;;;;2.10;1.47;;;-1.50;99.90;-3.20;96124.00;;;;5070256;28;20431;-75
2021/03/22 03:15:20;;;;;;;2.40;1.27;;;-1.60;99.90;-3.00;96131.00;;;;5077381;28;20461;-74
2021/03/22 03:18:08;;;;;;;1.20;1.10;;;-1.60;99.90;-2.90;96132.00;;;;5085083;28;20495;-73
2021/03/22 03:20:57;;;;;;;1.30;1.17;;;-1.60;99.90;-3.10;96135.00;;;;5084728;28;20860;-74
2021/03/22 03:23:45;;;;;;;1.33;1.23;;;-1.60;99.90;-3.00;96138.00;;;;5084252;28;20421;-74
2021/03/22 03:26:34;;;;;;;1.27;1.17;;;-1.60;99.90;-2.90;96147.00;;;;5073639;28;20453;-74
2021/03/22 03:29:21;;;;;;;1.30;1.20;;;-1.60;99.90;-2.80;96155.00;;;;5072026;28;20425;-74
2021/03/22 03:32:14;;;;;;;1.73;1.10;;;-1.50;99.90;-2.80;96158.00;;;;5084449;28;20434;-74
2021/03/22 03:35:03;;;;;;;1.03;1.03;;;-1.50;99.90;-2.70;96162.00;;;;5084979;28;20483;-75
2021/03/22 03:37:52;;;;;;;1.53;1.30;;;-1.50;99.90;-2.60;96174.00;;;;5085613;28;20462;-74
2021/03/22 03:40:43;;;;;;;1.63;1.27;;;-1.30;99.90;-2.60;96195.00;;;;5064266;28;20473;-73
2021/03/22 03:43:32;;;;;;;1.23;1.23;;;-1.30;99.90;-2.60;96192.00;;;;5066189;28;20445;-73
2021/03/22 03:46:20;;;;;;;2.30;1.70;;;-1.30;99.90;-2.30;96187.00;;;;5073846;28;20435;-73
2021/03/22 03:49:08;;;;;;;1.07;1.03;;;-1.20;99.90;-2.10;96192.00;;;;5072029;28;20428;-73
2021/03/22 03:51:56;;;;;;;2.40;1.73;;;-1.00;99.90;-1.70;96187.00;;;;5065339;28;20876;-74
2021/03/22 03:54:44;;;;;;;4.10;1.80;;;-0.80;99.90;-1.50;96183.00;;;;5065765;28;20434;-74
2021/03/22 03:57:32;;;;;;;4.57;1.97;;;-0.50;99.90;-1.20;96185.00;;;;5065425;28;20458;-74
2021/03/22 04:00:27;;;;;;;1.80;1.53;;;-0.40;99.90;-1.00;96179.00;;;;5071226;28;21168;-74
2021/03/22 04:03:27;;;;;;;3.23;2.53;;;-0.10;99.90;-1.00;96176.00;;;;5084054;28;20440;-74
2021/03/22 04:06:19;;;;;;;2.47;1.80;;;0.10;99.90;-1.00;96186.00;;;;5084164;28;20793;-74
2021/03/22 04:09:12;;;;;;;8.40;2.67;;;0.20;99.90;-1.00;96194.00;;;;5084041;28;20440;-73
2021/03/22 04:11:59;;;;;;;14.57;7.33;;;0.20;99.90;-1.20;96190.00;;;;5084578;28;20956;-74
2021/03/22 04:14:47;;;;;;;3.00;2.80;;;0.20;99.90;-1.10;96184.00;;;;5085276;28;20430;-74
2021/03/22 04:17:36;;;;;;;2.30;2.10;;;0.20;99.90;-0.80;96178.00;;;;5084775;28;20853;-74
2021/03/22 04:20:24;;;;;;;2.27;1.80;;;0.30;99.90;-0.70;96183.00;;;;5083901;28;20825;-74
2021/03/22 04:23:12;;;;;;;2.37;1.90;;;0.40;99.90;-0.60;96186.00;;;;5077576;28;20431;-74
2021/03/22 04:26:01;;;;;;;2.57;1.97;;;0.50;99.90;-0.60;96175.00;;;;5081845;28;20952;-75
2021/03/22 04:28:49;;;;;;;3.37;2.03;;;0.50;99.90;-0.60;96185.00;;;;5084182;28;20457;-75
2021/03/22 04:31:38;;;;;;;3.30;1.70;;;0.60;99.90;-0.70;96186.00;;;;5084675;28;20442;-75
2021/03/22 04:34:27;;;;;;;2.47;1.50;;;0.60;99.90;-0.50;96191.00;;;;5085097;28;20807;-74
2021/03/22 04:37:15;;;;;;;1.80;1.70;;;0.60;99.90;-0.50;96179.00;;;;5083193;28;20830;-75
2021/03/22 04:40:04;;;;;;;2.20;2.00;;;0.70;99.90;-0.70;96191.00;;;;5085124;28;20996;-74
2021/03/22 04:42:52;;;;;;;2.43;2.23;;;0.70;99.90;-0.60;96195.00;;;;5072892;28;20446;-74
2021/03/22 04:45:40;;;;;;;3.17;2.97;;;0.70;99.90;-0.80;96199.00;;;;5065614;28;20437;-74
2021/03/22 04:48:28;;;;;;;4.43;2.17;;;0.60;99.90;-0.80;96184.00;;;;5084075;28;21011;-74
2021/03/22 04:51:17;;;;;;;2.80;2.00;;;0.60;99.90;-1.00;96206.00;;;;5076072;28;20926;-74
2021/03/22 04:54:07;;;;;;;0.90;0.83;;;0.80;99.90;0.20;96195.00;;;;5072044;28;20502;-74
2021/03/22 04:56:55;;;;;;;1.60;1.30;;;0.60;99.90;-0.20;96184.00;;;;5067392;28;20414;-74
2021/03/22 04:59:42;;;;;;;1.20;1.10;;;0.80;99.90;-0.30;96203.00;;;;5081384;28;20473;-74
2021/03/22 05:02:30;;;;;;;2.73;1.07;;;0.90;99.90;-0.40;96199.00;;;;5083475;28;20441;-73
2021/03/22 05:05:19;;;;;;;1.63;1.53;;;0.90;99.90;-0.20;96196.00;;;;5069792;28;20441;-75
2021/03/22 05:08:12;;;;;;;3.03;1.10;;;0.90;99.90;-0.40;96195.00;;;;5068352;28;20961;-73
2021/03/22 05:11:01;;;;;;;1.43;1.30;;;1.00;99.90;-0.40;96207.00;;;;5068070;28;20438;-76
2021/03/22 05:13:49;;;;;;;2.00;1.43;;;0.90;99.90;-0.10;96203.00;;;;5068920;28;20437;-74
2021/03/22 05:16:37;;;;;;;1.40;1.27;;;0.90;99.90;0.00;96206.00;;;;5067038;28;20438;-74
2021/03/22 05:19:35;;;;;;;1.20;1.10;;;1.00;99.90;0.00;96197.00;;;;5069559;28;20534;-74
2021/03/22 05:22:23;;;;;;;1.37;1.00;;;1.10;99.90;0.30;96205.00;;;;5082006;28;20473;-76
2021/03/22 05:25:13;;;;;;;3.50;1.57;;;1.20;99.90;0.50;96211.00;;;;5081748;28;20807;-76
2021/03/22 05:28:06;;;;;;;1.23;1.13;;;1.30;99.90;0.30;96205.00;;;;5082522;28;20449;-75
2021/03/22 05:30:54;;;;;;;1.70;0.97;;;1.40;99.90;0.30;96206.00;;;;5079653;28;20471;-75
2021/03/22 05:33:42;;;;;;;1.07;1.03;;;1.50;99.90;0.20;96202.00;;;;5089020;28;20796;-74
2021/03/22 05:36:30;;;;;;;2.63;1.50;;;1.50;99.90;0.50;96198.00;;;;5082134;28;20425;-76
2021/03/22 05:39:19;;;;;;;5.73;1.20;;;1.50;99.90;0.50;96206.00;;;;5079710;28;20480;-74
2021/03/22 05:42:22;;;;;;;1.17;1.07;;;1.60;99.90;0.50;96221.00;;;;5078994;28;20445;-74
2021/03/22 05:45:34;;;;;;;0.93;0.93;;;1.60;99.90;0.50;96207.00;;;;5082997;28;20433;-75
2021/03/22 05:49:02;;;;;;;1.60;1.03;;;1.70;99.90;0.50;96211.00;;;;5083575;28;20465;-74
2021/03/22 05:52:34;;;;;;;1.10;1.00;;;1.70;99.90;0.70;96213.00;;;;5086733;28;20951;-75
2021/03/22 05:55:52;;;;;;;2.07;1.37;;;1.70;99.90;0.80;96219.00;;;;5068838;28;20452;-75
2021/03/22 05:59:05;;;;;;;1.43;1.20;;;1.80;99.90;0.90;96221.00;;;;5074010;28;20462;-75
2021/03/22 06:02:01;;;;;;;1.77;1.67;;;2.00;99.90;0.90;96230.00;;;;5079495;28;20422;-74
2021/03/22 06:04:53;;;;;;;2.00;1.40;;;2.00;99.90;1.00;96244.00;;;;5085611;28;20450;-74
2021/03/22 06:07:47;;;;;;;1.30;1.20;;;1.70;99.90;1.10;96234.00;;;;5086674;28;20852;-74
2021/03/22 06:10:43;;;;;;;1.67;1.43;;;2.10;99.90;1.30;96251.00;;;;5066207;28;20423;-75
2021/03/22 06:13:37;;;;;;;2.40;1.27;;;2.20;99.90;1.30;96258.00;;;;5066795;28;20923;-75
2021/03/22 06:16:33;;;;;;;1.77;1.67;;;2.30;99.90;1.30;96260.00;;;;5067178;28;20813;-76
2021/03/22 06:19:21;;;;;;;3.13;1.43;;;2.40;99.90;1.40;96258.00;;;;5066517;28;20424;-76
2021/03/22 06:22:22;;;;;;;1.27;1.00;;;2.40;99.90;1.60;96273.00;;;;5074761;28;20448;-76
2021/03/22 06:25:17;;;;;;;2.03;1.70;;;2.50;99.90;1.70;96271.00;;;;5083993;28;20456;-76
2021/03/22 06:28:20;;;;;;;1.50;1.40;;;2.60;99.90;1.70;96264.00;;;;5080584;28;20464;-77
2021/03/22 06:31:12;;;;;;;2.00;1.10;;;2.70;99.90;1.90;96270.00;;;;5081252;28;21153;-76
2021/03/22 06:34:04;;;;;;;1.40;1.27;;;2.80;99.90;2.00;96284.00;;;;5078380;28;20449;-77
2021/03/22 06:36:52;;;;;;;1.10;1.00;;;3.00;99.90;2.20;96280.00;;;;5072743;28;20442;-76
2021/03/22 06:39:43;;;;;;;2.23;1.50;;;3.10;99.90;2.30;96301.00;;;;5081579;28;20469;-77
2021/03/22 06:42:31;;;;;;;1.80;1.40;;;3.20;99.90;2.50;96304.00;;;;5083102;28;20441;-76
2021/03/22 06:45:31;;;;;;;1.63;1.50;;;3.30;99.90;2.40;96303.00;;;;5083050;28;20433;-76
2021/03/22 06:48:26;;;;;;;1.57;1.47;;;3.40;99.90;2.50;96304.00;;;;5078935;28;20503;-75
2021/03/22 06:51:20;;;;;;;3.70;1.60;;;3.50;99.90;2.70;96310.00;;;;5076438;28;20448;-77
2021/03/22 06:54:31;;;;;;;1.80;1.60;;;3.50;99.90;2.60;96304.00;;;;5078364;28;20496;-76
2021/03/22 06:57:22;;;;;;;1.00;0.97;;;3.60;96.70;2.70;96319.00;;;;5067054;28;20450;-74
2021/03/22 07:00:15;;;;;;;2.10;1.60;;;3.70;96.70;2.70;96310.00;;;;5074473;28;20462;-74
2021/03/22 07:03:22;;;;;;;3.40;1.40;;;3.80;94.90;3.00;96325.00;;;;5075063;28;20444;-73
2021/03/22 07:06:20;;;;;;;4.87;1.53;;;3.90;94.90;3.10;96329.00;;;;5072369;28;20437;-75
2021/03/22 07:09:08;;;;;;;4.37;1.33;;;4.00;95.10;2.90;96337.00;;;;5076978;28;20644;-75
2021/03/22 07:11:56;;;;;;;1.20;1.10;;;4.00;94.60;2.80;96349.00;;;;5077308;28;20970;-76
2021/03/22 07:14:44;;;;;;;6.73;4.43;;;4.00;94.80;2.60;96349.00;;;;5075304;28;20435;-76
2021/03/22 07:17:32;;;;;;;3.03;1.80;;;3.90;92.50;2.50;96360.00;;;;5065200;28;20553;-76
2021/03/22 07:20:21;;;;;;;21.77;10.47;;;3.80;91.60;2.50;96367.00;;;;5073203;28;20496;-76
2021/03/22 07:23:46;;;;;;;10.10;6.07;;;3.70;92.00;2.50;96350.00;;;;5078216;28;20461;-76
2021/03/22 07:26:58;;;;;;;3.10;2.77;;;3.70;91.90;2.60;96344.00;;;;5079326;28;20473;-77
2021/03/22 07:30:29;;;;;;;5.10;2.27;;;3.70;91.70;2.60;96354.00;;;;5074903;28;20434;-77
2021/03/22 07:33:36;;;;;;;3.07;2.20;;;3.70;91.70;2.50;96344.00;;;;5046587;28;20846;-77
2021/03/22 07:36:36;;;;;;;1.77;1.40;;;3.70;92.50;2.50;96369.00;;;;5078084;28;20462;-76
2021/03/22 07:39:42;;;;;;;1.77;1.43;;;3.70;92.10;2.50;96366.00;;;;5082556;28;20433;-76
2021/03/22 07:42:44;;;;;;;3.37;1.77;;;3.60;92.30;2.50;96359.00;;;;5076629;28;20429;-76
2021/03/22 07:45:53;;;;;;;2.27;1.83;;;3.60;92.70;2.60;96359.00;;;;5075487;28;20475;-77
2021/03/22 07:49:13;;;;;;;2.90;1.40;;;3.60;92.10;2.60;96365.00;;;;5068454;28;20454;-75
2021/03/22 07:52:22;;;;;;;2.63;1.97;;;3.60;92.00;2.60;96374.00;;;;5066195;28;20435;-76
2021/03/22 07:55:46;;;;;;;1.60;1.50;;;3.70;91.90;2.90;96362.00;;;;5070147;28;20439;-76
2021/03/22 07:58:59;;;;;;;5.60;2.03;;;3.80;92.00;3.10;96352.00;;;;5081831;28;20991;-76
2021/03/22 08:02:03;;;;;;;3.27;1.43;;;3.90;92.20;3.70;96352.00;;;;5074152;28;20425;-75
2021/03/22 08:04:56;;;;;;;8.33;1.53;;;4.20;91.70;4.00;96361.00;;;;5072620;28;20566;-76
2021/03/22 08:07:56;;;;;;;2.57;1.67;;;4.50;91.60;4.20;96356.00;;;;5074662;28;20464;-76
2021/03/22 08:10:56;;;;;;;1.43;1.20;;;4.80;91.90;4.40;96360.00;;;;5074459;28;20431;-76
2021/03/22 08:13:51;;;;;;;2.87;1.63;;;5.00;90.70;4.60;96369.00;;;;5080983;28;20508;-76
2021/03/22 08:17:18;;;;;;;2.17;1.97;;;5.20;90.40;4.70;96373.00;;;;5083359;28;20214;-75
2021/03/22 08:20:20;;;;;;;1.30;1.17;;;5.50;89.30;4.80;96381.00;;;;5080882;28;20223;-77
2021/03/22 08:23:18;;;;;;;4.63;1.93;;;5.60;87.40;4.60;96368.00;;;;5068318;28;20313;-76
2021/03/22 08:26:15;;;;;;;3.33;1.33;;;5.70;83.30;4.50;96372.00;;;;5068365;28;20200;-76
2021/03/22 08:29:10;;;;;;;1.40;1.30;;;5.60;83.20;4.80;96378.00;;;;5068555;28;20231;-76
2021/03/22 08:32:10;;;;;;;3.07;1.57;;;5.70;83.30;5.10;96368.00;;;;5069304;28;20199;-76
2021/03/22 08:35:06;;;;;;;1.50;1.30;;;5.80;84.40;5.10;96375.00;;;;5069103;28;20204;-77
2021/03/22 08:38:00;;;;;;;1.23;1.10;;;5.90;83.90;4.70;96384.00;;;;5072015;28;20211;-75
2021/03/22 08:40:52;;;;;;;1.00;1.00;;;6.00;77.90;5.40;96380.00;;;;5083760;28;20250;-76
2021/03/22 08:43:52;;;;;;;3.53;1.27;;;6.00;81.70;5.20;96359.00;;;;5076802;28;20212;-75
2021/03/22 08:46:46;;;;;;;2.90;1.30;;;6.10;80.50;5.70;96363.00;;;;5069254;28;20286;-75
2021/03/22 08:49:47;;;;;;;2.97;1.73;;;6.30;80.20;6.00;96357.00;;;;5077433;28;20223;-74
2021/03/22 08:52:39;;;;;;;1.57;1.47;;;6.60;79.20;6.40;96358.00;;;;5069217;28;20237;-74
2021/03/22 08:55:30;;;;;;;1.73;1.30;;;6.80;78.30;6.20;96387.00;;;;5081191;28;20326;-76
2021/03/22 08:58:26;;;;;;;1.63;1.37;;;7.00;76.40;5.80;96361.00;;;;5074977;28;20748;-75
2021/03/22 09:01:24;;;;;;;2.20;2.00;;;6.90;72.20;5.70;96354.00;;;;5078502;28;20227;-75
2021/03/22 09:04:29;;;;;;;1.23;1.13;;;7.00;70.90;5.90;96351.00;;;;5082442;28;20202;-75
2021/03/22 09:07:32;;;;;;;1.40;1.27;;;7.00;69.80;5.80;96381.00;;;;5084645;28;20935;-77
2021/03/22 09:10:42;;;;;;;3.23;1.00;;;6.90;68.50;6.10;96386.00;;;;5077885;28;20210;-75
2021/03/22 09:13:35;;;;;;;1.73;1.33;;;7.00;70.10;6.00;96378.00;;;;5066496;28;20216;-75
2021/03/22 09:16:44;;;;;;;2.90;1.23;;;7.00;68.90;5.70;96380.00;;;;5068607;28;20235;-78
2021/03/22 09:19:45;;;;;;;2.70;1.53;;;6.90;66.20;6.30;96378.00;;;;5080063;28;20598;-75
2021/03/22 09:22:58;;;;;;;2.93;1.87;;;7.00;67.90;6.20;96397.00;;;;5083532;28;20206;-77
2021/03/22 09:25:56;;;;;;;1.63;1.13;;;7.10;65.90;6.10;96402.00;;;;5073068;28;20218;-76
2021/03/22 09:28:58;;;;;;;2.87;1.27;;;7.20;65.00;6.00;96396.00;;;;5066763;28;20234;-74
2021/03/22 09:31:48;;;;;;;1.37;1.20;;;7.10;64.30;6.10;96391.00;;;;5067634;28;20671;-74
2021/03/22 09:34:45;;;;;;;2.00;1.60;;;7.20;64.10;6.40;96404.00;;;;5081706;28;20211;-75
2021/03/22 09:37:54;;;;;;;3.13;1.30;;;7.30;64.40;6.30;96408.00;;;;5067647;28;20607;-75
2021/03/22 09:41:02;;;;;;;1.63;1.53;;;7.40;62.20;6.30;96410.00;;;;5067625;28;20691;-74
2021/03/22 09:44:12;;;;;;;1.57;1.40;;;7.30;62.70;6.70;96409.00;;;;5068237;28;20206;-76
2021/03/22 09:47:18;;;;;;;2.20;1.30;;;7.40;63.80;6.50;96403.00;;;;5069816;28;20218;-75
2021/03/22 09:50:21;;;;;;;2.80;1.77;;;7.40;60.20;6.30;96380.00;;;;5087032;28;20195;-74
2021/03/22 09:53:21;;;;;;;4.00;2.70;;;7.40;59.00;6.30;96399.00;;;;5068503;28;20212;-74
2021/03/22 09:56:24;;;;;;;3.20;2.03;;;7.40;58.10;5.40;96404.00;;;;5067491;28;20200;-77
2021/03/22 09:59:29;;;;;;;2.97;2.47;;;7.20;56.10;6.30;96383.00;;;;5080784;28;20199;-75
2021/03/22 10:02:42;;;;;;;6.07;3.83;;;7.20;57.90;6.50;96409.00;;;;5076606;28;20200;-77
2021/03/22 10:05:57;;;;;;;1.47;1.37;;;7.30;58.10;6.80;96424.00;;;;5082029;28;20548;-76
2021/03/22 10:08:45;;;;;;;2.57;1.73;;;7.50;59.00;6.50;96412.00;;;;5080059;28;20223;-78
2021/03/22 10:11:39;;;;;;;7.70;1.93;;;7.50;56.70;6.20;96404.00;;;;5081115;28;20200;-75
2021/03/22 10:14:34;;;;;;;2.73;2.20;;;7.50;55.70;6.90;96407.00;;;;5067521;28;20212;-76
2021/03/22 10:17:30;;;;;;;2.30;1.40;;;7.60;55.70;6.70;96404.00;;;;5075053;28;20218;-75
2021/03/22 10:20:26;;;;;;;6.80;2.10;;;7.70;55.50;7.00;96401.00;;;;5083101;28;20227;-75
2021/03/22 10:23:31;;;;;;;1.63;1.30;;;7.80;55.40;6.20;96417.00;;;;5083427;28;20232;-77
2021/03/22 10:26:28;;;;;;;5.80;1.83;;;7.60;54.00;6.10;96434.00;;;;5066991;28;20204;-76
2021/03/22 10:29:27;;;;;;;3.83;1.70;;;7.40;54.80;6.60;96427.00;;;;5066674;28;20207;-75
2021/03/22 10:32:23;;;;;;;2.03;1.40;;;7.40;55.70;6.90;96394.00;;;;5068682;28;20199;-76
2021/03/22 10:35:15;;;;;;;3.33;1.90;;;7.50;55.70;6.60;96431.00;;;;5074192;28;20249;-76
2021/03/22 10:38:03;;;;;;;1.70;1.53;;;7.50;55.00;6.10;96416.00;;;;5067156;28;20228;-75
2021/03/22 10:40:52;;;;;;;2.07;1.23;;;7.30;53.70;6.10;96394.00;;;;5066948;28;20226;-75
2021/03/22 10:43:41;;;;;;;5.73;1.47;;;7.30;52.90;7.00;96383.00;;;;5066282;28;20195;-77
2021/03/22 10:46:32;;;;;;;0.90;0.90;;;7.50;54.60;7.90;96379.00;;;;5065152;28;20212;-76
2021/03/22 10:49:25;;;;;;;1.50;1.40;;;7.90;54.40;8.00;96387.00;;;;5072842;28;20195;-76
2021/03/22 10:52:25;;;;;;;2.03;1.37;;;8.40;53.30;8.60;96383.00;;;;5066198;28;20694;-76
2021/03/22 10:55:26;;;;;;;1.40;1.20;;;8.80;52.90;8.90;96399.00;;;;5066827;28;20215;-74
2021/03/22 10:58:26;;;;;;;1.57;1.17;;;9.20;52.20;7.80;96376.00;;;;5071257;28;20231;-73
2021/03/22 11:01:14;;;;;;;2.40;1.10;;;9.30;49.70;8.00;96374.00;;;;5071915;28;20310;-74
2021/03/22 11:04:12;;;;;;;2.83;1.37;;;9.30;50.50;8.20;96364.00;;;;5065916;28;20585;-75
2021/03/22 11:07:11;;;;;;;5.00;1.43;;;9.40;49.90;8.40;96386.00;;;;5066288;28;20203;-75
2021/03/22 11:10:05;;;;;;;4.10;2.13;;;9.30;50.60;8.90;96383.00;;;;5064667;28;20874;-75
2021/03/22 11:12:54;;;;;;;6.43;4.30;;;9.50;50.00;8.70;96403.00;;;;5065213;28;20696;-74
2021/03/22 11:15:48;;;;;;;6.07;2.83;;;9.60;50.60;8.80;96401.00;;;;5073764;28;20587;-76
2021/03/22 11:18:36;;;;;;;3.73;2.20;;;9.60;50.70;8.90;96415.00;;;;5063770;28;20242;-75
2021/03/22 11:21:27;;;;;;;1.83;1.20;;;9.80;49.60;8.60;96397.00;;;;5064988;28;20224;-74
2021/03/22 11:24:18;;;;;;;6.80;3.10;;;9.70;48.40;9.40;96392.00;;;;5066855;28;20208;-76
2021/03/22 11:27:11;;;;;;;2.40;1.23;;;9.80;49.60;10.00;96394.00;;;;5064601;28;20231;-76
2021/03/22 11:30:05;;;;;;;2.93;1.77;;;10.20;50.20;9.50;96391.00;;;;5065963;28;20695;-78
2021/03/22 11:32:53;;;;;;;11.40;6.90;;;10.40;47.00;9.40;96384.00;;;;5082081;28;21152;-76
2021/03/22 11:35:44;;;;;;;3.30;1.90;;;10.50;47.40;9.80;96378.00;;;;5089199;28;20638;-76
2021/03/22 11:38:37;;;;;;;3.07;1.30;;;10.60;48.00;9.30;96389.00;;;;5084665;28;20245;-75
2021/03/22 11:41:37;;;;;;;4.30;1.70;;;10.60;46.30;10.50;96394.00;;;;5074518;28;20585;-76
2021/03/22 11:44:33;;;;;;;1.63;1.20;;;10.80;47.20;9.20;96387.00;;;;5083097;28;20209;-76
2021/03/22 11:47:45;;;;;;;1.60;1.50;;;10.60;45.10;10.30;96377.00;;;;5066038;28;20223;-76
2021/03/22 11:50:45;;;;;;;1.67;0.90;;;10.90;46.00;10.00;96381.00;;;;5078298;28;20578;-73
2021/03/22 11:54:02;;;;;;;2.40;1.37;;;11.20;45.30;10.40;96368.00;;;;5067488;28;20203;-74
2021/03/22 11:57:02;;;;;;;2.80;1.53;;;11.20;44.70;10.10;96432.00;;;;5078554;28;20748;-75
2021/03/22 11:59:55;;;;;;;2.43;1.20;;;11.10;44.70;9.10;96354.00;;;;5077399;28;20203;-76
2021/03/22 12:02:51;;;;;;;2.20;1.60;;;10.80;44.80;9.90;96360.00;;;;5079808;28;20264;-75
2021/03/22 12:05:42;;;;;;;1.20;1.10;;;10.70;45.10;10.80;96350.00;;;;5081206;28;20260;-75
2021/03/22 12:08:33;;;;;;;1.43;1.23;;;11.00;46.40;12.30;96359.00;;;;5073718;28;20227;-74
2021/03/22 12:11:25;;;;;;;1.93;1.07;;;11.50;47.40;12.60;96365.00;;;;5081725;28;20203;-75
2021/03/22 12:14:13;;;;;;;1.43;0.80;;;12.20;46.50;11.40;96357.00;;;;5083127;28;20192;-75
2021/03/22 12:17:07;;;;;;;1.30;1.20;;;12.40;43.70;9.30;96407.00;;;;5084148;28;20215;-75
2021/03/22 12:19:56;;;;;;;1.57;0.93;;;12.00;42.10;8.10;96406.00;;;;5083288;28;20195;-76
2021/03/22 12:22:44;;;;;;;1.77;1.20;;;11.00;42.00;8.50;96413.00;;;;5083957;28;20199;-76
2021/03/22 12:25:36;;;;;;;1.30;1.10;;;10.40;44.20;8.50;96412.00;;;;5083277;28;20675;-74
2021/03/22 12:28:24;;;;;;;2.23;1.67;;;9.90;45.40;8.20;96401.00;;;;5081716;28;20227;-75
2021/03/22 12:31:12;;;;;;;2.57;1.50;;;9.50;46.10;7.40;96339.00;;;;5081987;28;20195;-76
2021/03/22 12:34:05;;;;;;;1.73;1.20;;;10.20;47.50;7.60;96395.00;;;;5082570;28;20195;-76
2021/03/22 12:36:53;;;;;;;2.33;1.60;;;8.90;47.60;7.30;96410.00;;;;5079959;28;20200;-79
2021/03/22 12:39:41;;;;;;;5.70;1.80;;;8.70;48.40;8.40;96405.00;;;;5080993;28;20206;-77
2021/03/22 12:42:31;;;;;;;2.07;1.20;;;8.80;49.10;8.50;96394.00;;;;5081006;28;20199;-77
2021/03/22 12:45:23;;;;;;;1.90;1.00;;;9.00;49.50;7.60;96412.00;;;;5082689;28;20210;-76
2021/03/22 12:48:11;;;;;;;4.90;1.30;;;8.90;47.70;7.90;96419.00;;;;5074728;28;20619;-75
2021/03/22 12:50:59;;;;;;;1.47;0.93;;;8.90;48.80;8.80;96416.00;;;;5097539;28;20199;-76
2021/03/22 12:53:47;;;;;;;2.40;1.07;;;9.10;49.60;7.60;96434.00;;;;5078556;28;20867;-76
2021/03/22 12:56:35;;;;;;;1.13;1.03;;;9.00;49.00;6.90;96416.00;;;;5088760;28;20929;-76
2021/03/22 12:59:35;;;;;;;3.50;1.13;;;8.70;49.10;8.00;96330.00;;;;5079542;28;20206;-76
2021/03/22 13:02:26;;;;;;;1.57;1.10;;;8.70;50.50;9.60;96348.00;;;;5069951;28;20228;-77
2021/03/22 13:05:21;;;;;;;1.90;1.20;;;9.20;51.10;10.00;96448.00;;;;5064776;28;20204;-76
2021/03/22 13:08:10;;;;;;;1.17;1.10;;;9.90;50.50;8.90;96421.00;;;;5068474;28;20224;-76